sensor_id;sensor_type;location;lat;lon;timestamp;P1;durP1;ratioP1;P2;durP2;ratioP2
21192;SDS011;10754;51.106;7.164;2023-06-24T00:02:00;5.47;;;3.55;;
21192;SDS011;10754;51.106;7.164;2023-06-24T00:04:26;3.83;;;3.53;;
21192;SDS011;10754;51.106;7.164;2023-06-24T00:06:51;5.22;;;3.33;;
21192;SDS011;10754;51.106;7.164;2023-06-24T00:09:17;5.13;;;3.60;;
21192;SDS011;10754;51.106;7.164;2023-06-24T00:11:43;3.80;;;3.47;;
21192;SDS011;10754;51.106;7.164;2023-06-24T00:14:08;4.55;;;3.67;;
21192;SDS011;10754;51.106;7.164;2023-06-24T00:16:35;4.05;;;3.75;;
21192;SDS011;10754;51.106;7.164;2023-06-24T00:19:01;3.83;;;3.53;;
21192;SDS011;10754;51.106;7.164;2023-06-24T00:21:27;4.88;;;3.47;;
21192;SDS011;10754;51.106;7.164;2023-06-24T00:23:59;5.22;;;3.58;;
21192;SDS011;10754;51.106;7.164;2023-06-24T00:26:27;4.25;;;3.75;;
21192;SDS011;10754;51.106;7.164;2023-06-24T00:28:53;3.78;;;3.47;;
21192;SDS011;10754;51.106;7.164;2023-06-24T00:31:19;4.25;;;3.88;;
21192;SDS011;10754;51.106;7.164;2023-06-24T00:33:45;4.57;;;3.63;;
21192;SDS011;10754;51.106;7.164;2023-06-24T00:36:11;3.38;;;3.08;;
21192;SDS011;10754;51.106;7.164;2023-06-24T00:38:37;3.95;;;3.58;;
21192;SDS011;10754;51.106;7.164;2023-06-24T00:41:03;5.90;;;3.60;;
21192;SDS011;10754;51.106;7.164;2023-06-24T00:43:29;3.63;;;3.33;;
21192;SDS011;10754;51.106;7.164;2023-06-24T00:45:56;4.20;;;3.50;;
21192;SDS011;10754;51.106;7.164;2023-06-24T00:48:22;3.63;;;3.25;;
21192;SDS011;10754;51.106;7.164;2023-06-24T00:50:49;3.88;;;3.58;;
21192;SDS011;10754;51.106;7.164;2023-06-24T00:53:18;3.78;;;3.38;;
21192;SDS011;10754;51.106;7.164;2023-06-24T00:55:45;3.75;;;3.35;;
21192;SDS011;10754;51.106;7.164;2023-06-24T00:58:14;3.80;;;3.35;;
21192;SDS011;10754;51.106;7.164;2023-06-24T01:00:42;6.63;;;3.78;;
21192;SDS011;10754;51.106;7.164;2023-06-24T01:03:09;3.78;;;3.33;;
21192;SDS011;10754;51.106;7.164;2023-06-24T01:05:39;4.22;;;3.70;;
21192;SDS011;10754;51.106;7.164;2023-06-24T01:08:06;4.10;;;3.80;;
21192;SDS011;10754;51.106;7.164;2023-06-24T01:10:31;4.03;;;3.30;;
21192;SDS011;10754;51.106;7.164;2023-06-24T01:12:57;3.95;;;3.22;;
21192;SDS011;10754;51.106;7.164;2023-06-24T01:15:23;3.58;;;3.28;;
21192;SDS011;10754;51.106;7.164;2023-06-24T01:17:55;3.95;;;3.25;;
21192;SDS011;10754;51.106;7.164;2023-06-24T01:20:28;4.28;;;3.03;;
21192;SDS011;10754;51.106;7.164;2023-06-24T01:28:16;3.85;;;3.05;;
21192;SDS011;10754;51.106;7.164;2023-06-24T01:33:32;3.60;;;3.30;;
21192;SDS011;10754;51.106;7.164;2023-06-24T01:36:02;3.40;;;3.00;;
21192;SDS011;10754;51.106;7.164;2023-06-24T01:38:38;4.70;;;3.50;;
21192;SDS011;10754;51.106;7.164;2023-06-24T01:41:12;3.65;;;3.35;;
21192;SDS011;10754;51.106;7.164;2023-06-24T01:43:40;5.85;;;3.08;;
21192;SDS011;10754;51.106;7.164;2023-06-24T01:46:09;4.60;;;3.40;;
21192;SDS011;10754;51.106;7.164;2023-06-24T01:48:36;5.32;;;3.45;;
21192;SDS011;10754;51.106;7.164;2023-06-24T01:53:38;3.47;;;3.17;;
21192;SDS011;10754;51.106;7.164;2023-06-24T01:56:07;4.25;;;3.38;;
21192;SDS011;10754;51.106;7.164;2023-06-24T01:58:36;3.83;;;3.53;;
21192;SDS011;10754;51.106;7.164;2023-06-24T02:01:02;3.58;;;3.28;;
21192;SDS011;10754;51.106;7.164;2023-06-24T02:03:29;3.33;;;3.10;;
21192;SDS011;10754;51.106;7.164;2023-06-24T02:05:57;3.60;;;3.38;;
21192;SDS011;10754;51.106;7.164;2023-06-24T02:08:24;3.65;;;3.30;;
21192;SDS011;10754;51.106;7.164;2023-06-24T02:10:53;4.40;;;3.60;;
21192;SDS011;10754;51.106;7.164;2023-06-24T02:13:20;3.90;;;3.50;;
21192;SDS011;10754;51.106;7.164;2023-06-24T02:15:46;3.22;;;3.03;;
21192;SDS011;10754;51.106;7.164;2023-06-24T02:18:14;4.72;;;3.13;;
21192;SDS011;10754;51.106;7.164;2023-06-24T02:20:42;3.85;;;2.88;;
21192;SDS011;10754;51.106;7.164;2023-06-24T02:23:09;3.50;;;3.20;;
21192;SDS011;10754;51.106;7.164;2023-06-24T02:25:36;3.97;;;3.40;;
21192;SDS011;10754;51.106;7.164;2023-06-24T02:28:04;4.22;;;3.42;;
21192;SDS011;10754;51.106;7.164;2023-06-24T02:30:30;4.45;;;3.20;;
21192;SDS011;10754;51.106;7.164;2023-06-24T02:32:57;3.95;;;3.22;;
21192;SDS011;10754;51.106;7.164;2023-06-24T02:35:22;4.40;;;3.30;;
21192;SDS011;10754;51.106;7.164;2023-06-24T02:37:48;4.70;;;3.42;;
21192;SDS011;10754;51.106;7.164;2023-06-24T02:40:14;5.20;;;3.47;;
21192;SDS011;10754;51.106;7.164;2023-06-24T02:42:39;5.65;;;3.33;;
21192;SDS011;10754;51.106;7.164;2023-06-24T02:45:05;6.95;;;3.60;;
21192;SDS011;10754;51.106;7.164;2023-06-24T02:47:31;4.63;;;3.10;;
21192;SDS011;10754;51.106;7.164;2023-06-24T02:49:58;4.15;;;3.20;;
21192;SDS011;10754;51.106;7.164;2023-06-24T02:52:24;4.38;;;3.05;;
21192;SDS011;10754;51.106;7.164;2023-06-24T02:54:53;12.85;;;3.95;;
21192;SDS011;10754;51.106;7.164;2023-06-24T02:57:21;4.65;;;3.38;;
21192;SDS011;10754;51.106;7.164;2023-06-24T02:59:48;3.28;;;2.92;;
21192;SDS011;10754;51.106;7.164;2023-06-24T03:02:14;3.20;;;3.00;;
21192;SDS011;10754;51.106;7.164;2023-06-24T03:04:41;3.53;;;2.85;;
21192;SDS011;10754;51.106;7.164;2023-06-24T03:07:07;3.55;;;2.85;;
21192;SDS011;10754;51.106;7.164;2023-06-24T03:09:35;3.53;;;3.03;;
21192;SDS011;10754;51.106;7.164;2023-06-24T03:12:01;3.40;;;3.10;;
21192;SDS011;10754;51.106;7.164;2023-06-24T03:14:26;3.95;;;3.08;;
21192;SDS011;10754;51.106;7.164;2023-06-24T03:16:52;3.53;;;2.88;;
21192;SDS011;10754;51.106;7.164;2023-06-24T03:19:17;4.15;;;3.05;;
21192;SDS011;10754;51.106;7.164;2023-06-24T03:21:43;3.75;;;3.08;;
21192;SDS011;10754;51.106;7.164;2023-06-24T03:24:08;3.10;;;2.80;;
21192;SDS011;10754;51.106;7.164;2023-06-24T03:26:34;3.60;;;2.80;;
21192;SDS011;10754;51.106;7.164;2023-06-24T03:29:01;3.30;;;3.00;;
21192;SDS011;10754;51.106;7.164;2023-06-24T03:31:27;3.47;;;3.17;;
21192;SDS011;10754;51.106;7.164;2023-06-24T03:33:53;5.50;;;2.97;;
21192;SDS011;10754;51.106;7.164;2023-06-24T03:36:18;5.07;;;3.08;;
21192;SDS011;10754;51.106;7.164;2023-06-24T03:38:45;4.00;;;2.80;;
21192;SDS011;10754;51.106;7.164;2023-06-24T03:41:11;3.42;;;3.10;;
21192;SDS011;10754;51.106;7.164;2023-06-24T03:43:36;3.55;;;2.90;;
21192;SDS011;10754;51.106;7.164;2023-06-24T03:46:02;4.10;;;3.08;;
21192;SDS011;10754;51.106;7.164;2023-06-24T03:48:27;3.70;;;3.22;;
21192;SDS011;10754;51.106;7.164;2023-06-24T03:50:53;3.95;;;2.80;;
21192;SDS011;10754;51.106;7.164;2023-06-24T03:53:18;4.05;;;2.95;;
21192;SDS011;10754;51.106;7.164;2023-06-24T03:55:44;5.55;;;2.92;;
21192;SDS011;10754;51.106;7.164;2023-06-24T03:58:10;9.05;;;2.95;;
21192;SDS011;10754;51.106;7.164;2023-06-24T04:00:35;5.22;;;3.03;;
21192;SDS011;10754;51.106;7.164;2023-06-24T04:03:05;3.70;;;3.00;;
21192;SDS011;10754;51.106;7.164;2023-06-24T04:05:32;4.30;;;3.10;;
21192;SDS011;10754;51.106;7.164;2023-06-24T04:07:58;3.05;;;2.85;;
21192;SDS011;10754;51.106;7.164;2023-06-24T04:10:24;3.47;;;3.17;;
21192;SDS011;10754;51.106;7.164;2023-06-24T04:12:49;3.63;;;3.00;;
21192;SDS011;10754;51.106;7.164;2023-06-24T04:15:15;3.00;;;2.78;;
21192;SDS011;10754;51.106;7.164;2023-06-24T04:17:40;3.25;;;3.00;;
21192;SDS011;10754;51.106;7.164;2023-06-24T04:20:06;3.10;;;2.90;;
21192;SDS011;10754;51.106;7.164;2023-06-24T04:22:33;3.72;;;2.80;;
21192;SDS011;10754;51.106;7.164;2023-06-24T04:25:00;3.95;;;2.65;;
21192;SDS011;10754;51.106;7.164;2023-06-24T04:27:25;6.50;;;3.00;;
21192;SDS011;10754;51.106;7.164;2023-06-24T04:29:51;4.05;;;3.15;;
21192;SDS011;10754;51.106;7.164;2023-06-24T04:32:16;3.00;;;2.72;;
21192;SDS011;10754;51.106;7.164;2023-06-24T04:34:42;3.65;;;2.80;;
21192;SDS011;10754;51.106;7.164;2023-06-24T04:37:07;5.22;;;3.10;;
21192;SDS011;10754;51.106;7.164;2023-06-24T04:39:33;3.45;;;3.15;;
21192;SDS011;10754;51.106;7.164;2023-06-24T04:41:58;4.72;;;3.17;;
21192;SDS011;10754;51.106;7.164;2023-06-24T04:44:24;3.50;;;3.20;;
21192;SDS011;10754;51.106;7.164;2023-06-24T04:46:50;3.80;;;3.28;;
21192;SDS011;10754;51.106;7.164;2023-06-24T04:49:17;8.13;;;3.13;;
21192;SDS011;10754;51.106;7.164;2023-06-24T04:51:43;2.72;;;2.42;;
21192;SDS011;10754;51.106;7.164;2023-06-24T04:54:09;3.10;;;2.80;;
21192;SDS011;10754;51.106;7.164;2023-06-24T04:56:34;3.40;;;3.10;;
21192;SDS011;10754;51.106;7.164;2023-06-24T04:59:00;3.67;;;3.38;;
21192;SDS011;10754;51.106;7.164;2023-06-24T05:01:26;3.72;;;3.33;;
21192;SDS011;10754;51.106;7.164;2023-06-24T05:03:52;5.18;;;4.10;;
21192;SDS011;10754;51.106;7.164;2023-06-24T05:06:17;4.10;;;3.80;;
21192;SDS011;10754;51.106;7.164;2023-06-24T05:08:42;3.53;;;3.22;;
21192;SDS011;10754;51.106;7.164;2023-06-24T05:11:08;3.88;;;3.17;;
21192;SDS011;10754;51.106;7.164;2023-06-24T05:13:34;3.20;;;3.00;;
21192;SDS011;10754;51.106;7.164;2023-06-24T05:15:59;4.00;;;3.70;;
21192;SDS011;10754;51.106;7.164;2023-06-24T05:18:25;4.18;;;3.83;;
21192;SDS011;10754;51.106;7.164;2023-06-24T05:20:50;4.90;;;3.90;;
21192;SDS011;10754;51.106;7.164;2023-06-24T05:23:16;4.38;;;3.97;;
21192;SDS011;10754;51.106;7.164;2023-06-24T05:25:41;4.65;;;4.32;;
21192;SDS011;10754;51.106;7.164;2023-06-24T05:28:07;5.18;;;3.90;;
21192;SDS011;10754;51.106;7.164;2023-06-24T05:30:32;3.83;;;3.55;;
21192;SDS011;10754;51.106;7.164;2023-06-24T05:32:58;4.88;;;4.38;;
21192;SDS011;10754;51.106;7.164;2023-06-24T05:35:23;4.63;;;4.22;;
21192;SDS011;10754;51.106;7.164;2023-06-24T05:37:49;5.03;;;4.43;;
21192;SDS011;10754;51.106;7.164;2023-06-24T05:40:14;5.82;;;4.50;;
21192;SDS011;10754;51.106;7.164;2023-06-24T05:42:40;4.82;;;4.43;;
21192;SDS011;10754;51.106;7.164;2023-06-24T05:45:05;6.68;;;4.63;;
21192;SDS011;10754;51.106;7.164;2023-06-24T05:47:32;4.75;;;4.35;;
21192;SDS011;10754;51.106;7.164;2023-06-24T05:49:57;5.60;;;5.07;;
21192;SDS011;10754;51.106;7.164;2023-06-24T05:52:23;4.57;;;4.18;;
21192;SDS011;10754;51.106;7.164;2023-06-24T05:54:49;5.20;;;4.70;;
21192;SDS011;10754;51.106;7.164;2023-06-24T05:57:14;4.78;;;4.38;;
21192;SDS011;10754;51.106;7.164;2023-06-24T05:59:40;7.53;;;5.57;;
21192;SDS011;10754;51.106;7.164;2023-06-24T06:02:06;7.13;;;4.78;;
21192;SDS011;10754;51.106;7.164;2023-06-24T06:04:31;5.60;;;5.10;;
21192;SDS011;10754;51.106;7.164;2023-06-24T06:06:57;5.65;;;5.20;;
21192;SDS011;10754;51.106;7.164;2023-06-24T06:09:23;5.85;;;5.32;;
21192;SDS011;10754;51.106;7.164;2023-06-24T06:11:48;5.93;;;5.32;;
21192;SDS011;10754;51.106;7.164;2023-06-24T06:14:14;5.38;;;4.88;;
21192;SDS011;10754;51.106;7.164;2023-06-24T06:16:39;5.10;;;4.60;;
21192;SDS011;10754;51.106;7.164;2023-06-24T06:19:05;13.00;;;6.72;;
21192;SDS011;10754;51.106;7.164;2023-06-24T06:21:30;9.85;;;6.82;;
21192;SDS011;10754;51.106;7.164;2023-06-24T06:23:56;61.72;;;23.67;;
21192;SDS011;10754;51.106;7.164;2023-06-24T06:26:22;8.10;;;5.07;;
21192;SDS011;10754;51.106;7.164;2023-06-24T06:28:47;24.85;;;11.32;;
21192;SDS011;10754;51.106;7.164;2023-06-24T06:31:13;6.05;;;5.55;;
21192;SDS011;10754;51.106;7.164;2023-06-24T06:33:39;4.82;;;4.43;;
21192;SDS011;10754;51.106;7.164;2023-06-24T06:36:05;5.75;;;5.13;;
21192;SDS011;10754;51.106;7.164;2023-06-24T06:38:31;5.00;;;4.60;;
21192;SDS011;10754;51.106;7.164;2023-06-24T06:40:58;5.07;;;4.60;;
21192;SDS011;10754;51.106;7.164;2023-06-24T06:43:23;4.93;;;4.53;;
21192;SDS011;10754;51.106;7.164;2023-06-24T06:45:49;5.50;;;4.95;;
21192;SDS011;10754;51.106;7.164;2023-06-24T06:48:14;5.85;;;5.20;;
21192;SDS011;10754;51.106;7.164;2023-06-24T06:50:40;5.55;;;5.05;;
21192;SDS011;10754;51.106;7.164;2023-06-24T06:53:05;5.72;;;5.15;;
21192;SDS011;10754;51.106;7.164;2023-06-24T06:55:31;7.40;;;6.22;;
21192;SDS011;10754;51.106;7.164;2023-06-24T06:57:56;8.45;;;6.95;;
21192;SDS011;10754;51.106;7.164;2023-06-24T07:00:22;8.40;;;7.50;;
21192;SDS011;10754;51.106;7.164;2023-06-24T07:02:47;8.18;;;7.47;;
21192;SDS011;10754;51.106;7.164;2023-06-24T07:05:13;7.40;;;6.70;;
21192;SDS011;10754;51.106;7.164;2023-06-24T07:07:38;7.65;;;6.95;;
21192;SDS011;10754;51.106;7.164;2023-06-24T07:10:04;9.30;;;7.72;;
21192;SDS011;10754;51.106;7.164;2023-06-24T07:12:30;7.57;;;6.88;;
21192;SDS011;10754;51.106;7.164;2023-06-24T07:14:56;7.97;;;7.13;;
21192;SDS011;10754;51.106;7.164;2023-06-24T07:17:22;7.95;;;7.22;;
21192;SDS011;10754;51.106;7.164;2023-06-24T07:19:47;7.78;;;7.15;;
21192;SDS011;10754;51.106;7.164;2023-06-24T07:22:13;8.40;;;7.60;;
21192;SDS011;10754;51.106;7.164;2023-06-24T07:24:39;8.10;;;7.18;;
21192;SDS011;10754;51.106;7.164;2023-06-24T07:27:05;7.68;;;7.00;;
21192;SDS011;10754;51.106;7.164;2023-06-24T07:29:31;9.30;;;7.65;;
21192;SDS011;10754;51.106;7.164;2023-06-24T07:31:56;8.05;;;7.35;;
21192;SDS011;10754;51.106;7.164;2023-06-24T07:34:22;8.15;;;7.18;;
21192;SDS011;10754;51.106;7.164;2023-06-24T07:36:47;9.27;;;8.38;;
21192;SDS011;10754;51.106;7.164;2023-06-24T07:39:15;9.38;;;8.48;;
21192;SDS011;10754;51.106;7.164;2023-06-24T07:41:41;8.82;;;8.02;;
21192;SDS011;10754;51.106;7.164;2023-06-24T07:44:07;9.38;;;8.40;;
21192;SDS011;10754;51.106;7.164;2023-06-24T07:46:33;8.23;;;7.50;;
21192;SDS011;10754;51.106;7.164;2023-06-24T07:48:58;9.35;;;8.55;;
21192;SDS011;10754;51.106;7.164;2023-06-24T07:51:24;9.25;;;8.40;;
21192;SDS011;10754;51.106;7.164;2023-06-24T07:53:49;7.68;;;7.07;;
21192;SDS011;10754;51.106;7.164;2023-06-24T07:56:15;8.63;;;7.82;;
21192;SDS011;10754;51.106;7.164;2023-06-24T07:58:40;9.00;;;8.15;;
21192;SDS011;10754;51.106;7.164;2023-06-24T08:01:06;9.10;;;7.38;;
21192;SDS011;10754;51.106;7.164;2023-06-24T08:03:31;9.10;;;8.35;;
21192;SDS011;10754;51.106;7.164;2023-06-24T08:05:57;8.85;;;7.95;;
21192;SDS011;10754;51.106;7.164;2023-06-24T08:08:22;8.68;;;7.80;;
21192;SDS011;10754;51.106;7.164;2023-06-24T08:10:48;8.93;;;7.97;;
21192;SDS011;10754;51.106;7.164;2023-06-24T08:13:13;8.25;;;7.22;;
21192;SDS011;10754;51.106;7.164;2023-06-24T08:15:39;9.57;;;8.02;;
21192;SDS011;10754;51.106;7.164;2023-06-24T08:18:04;10.43;;;8.13;;
21192;SDS011;10754;51.106;7.164;2023-06-24T08:20:30;8.40;;;7.70;;
21192;SDS011;10754;51.106;7.164;2023-06-24T08:22:55;8.52;;;7.72;;
21192;SDS011;10754;51.106;7.164;2023-06-24T08:25:21;9.68;;;8.77;;
21192;SDS011;10754;51.106;7.164;2023-06-24T08:27:46;8.77;;;8.00;;
21192;SDS011;10754;51.106;7.164;2023-06-24T08:30:12;9.40;;;8.60;;
21192;SDS011;10754;51.106;7.164;2023-06-24T08:32:40;10.77;;;9.43;;
21192;SDS011;10754;51.106;7.164;2023-06-24T08:35:06;9.45;;;8.45;;
21192;SDS011;10754;51.106;7.164;2023-06-24T08:37:32;9.23;;;8.32;;
21192;SDS011;10754;51.106;7.164;2023-06-24T08:39:58;8.27;;;7.47;;
21192;SDS011;10754;51.106;7.164;2023-06-24T08:42:24;9.35;;;8.52;;
21192;SDS011;10754;51.106;7.164;2023-06-24T08:44:49;9.70;;;8.48;;
21192;SDS011;10754;51.106;7.164;2023-06-24T08:47:15;7.60;;;6.85;;
21192;SDS011;10754;51.106;7.164;2023-06-24T08:49:48;8.75;;;7.85;;
21192;SDS011;10754;51.106;7.164;2023-06-24T08:52:21;9.75;;;8.50;;
21192;SDS011;10754;51.106;7.164;2023-06-24T08:54:51;9.80;;;8.88;;
21192;SDS011;10754;51.106;7.164;2023-06-24T08:57:19;8.73;;;7.82;;
21192;SDS011;10754;51.106;7.164;2023-06-24T08:59:45;9.57;;;8.32;;
21192;SDS011;10754;51.106;7.164;2023-06-24T09:02:11;9.02;;;8.18;;
21192;SDS011;10754;51.106;7.164;2023-06-24T09:04:38;9.00;;;8.10;;
21192;SDS011;10754;51.106;7.164;2023-06-24T09:07:04;8.20;;;7.40;;
21192;SDS011;10754;51.106;7.164;2023-06-24T09:09:30;7.60;;;6.90;;
21192;SDS011;10754;51.106;7.164;2023-06-24T09:11:57;8.75;;;7.85;;
21192;SDS011;10754;51.106;7.164;2023-06-24T09:14:24;8.48;;;7.78;;
21192;SDS011;10754;51.106;7.164;2023-06-24T09:16:51;7.00;;;6.30;;
21192;SDS011;10754;51.106;7.164;2023-06-24T09:19:20;8.15;;;7.25;;
21192;SDS011;10754;51.106;7.164;2023-06-24T09:21:47;7.35;;;6.55;;
21192;SDS011;10754;51.106;7.164;2023-06-24T09:24:12;8.10;;;7.30;;
21192;SDS011;10754;51.106;7.164;2023-06-24T09:26:38;8.10;;;7.32;;
21192;SDS011;10754;51.106;7.164;2023-06-24T09:29:07;8.48;;;7.68;;
21192;SDS011;10754;51.106;7.164;2023-06-24T09:31:33;8.00;;;7.22;;
21192;SDS011;10754;51.106;7.164;2023-06-24T09:33:58;8.02;;;7.22;;
21192;SDS011;10754;51.106;7.164;2023-06-24T09:36:25;12.50;;;7.53;;
21192;SDS011;10754;51.106;7.164;2023-06-24T09:38:51;28.88;;;12.95;;
21192;SDS011;10754;51.106;7.164;2023-06-24T09:41:16;8.52;;;6.75;;
21192;SDS011;10754;51.106;7.164;2023-06-24T09:43:42;38.72;;;18.65;;
21192;SDS011;10754;51.106;7.164;2023-06-24T09:46:12;7.78;;;6.63;;
21192;SDS011;10754;51.106;7.164;2023-06-24T09:48:39;7.47;;;6.68;;
21192;SDS011;10754;51.106;7.164;2023-06-24T09:51:05;13.23;;;8.82;;
21192;SDS011;10754;51.106;7.164;2023-06-24T09:53:31;10.57;;;7.18;;
21192;SDS011;10754;51.106;7.164;2023-06-24T09:55:59;6.93;;;6.28;;
21192;SDS011;10754;51.106;7.164;2023-06-24T09:58:26;7.05;;;5.82;;
21192;SDS011;10754;51.106;7.164;2023-06-24T10:00:54;6.07;;;5.47;;
21192;SDS011;10754;51.106;7.164;2023-06-24T10:03:20;5.88;;;5.07;;
21192;SDS011;10754;51.106;7.164;2023-06-24T10:05:46;5.55;;;5.05;;
21192;SDS011;10754;51.106;7.164;2023-06-24T10:08:13;6.35;;;5.30;;
21192;SDS011;10754;51.106;7.164;2023-06-24T10:10:39;6.57;;;5.82;;
21192;SDS011;10754;51.106;7.164;2023-06-24T10:13:05;8.45;;;6.40;;
21192;SDS011;10754;51.106;7.164;2023-06-24T10:15:31;6.88;;;5.55;;
21192;SDS011;10754;51.106;7.164;2023-06-24T10:18:00;5.95;;;5.45;;
21192;SDS011;10754;51.106;7.164;2023-06-24T10:20:28;9.38;;;6.70;;
21192;SDS011;10754;51.106;7.164;2023-06-24T10:22:53;5.85;;;5.32;;
21192;SDS011;10754;51.106;7.164;2023-06-24T10:25:19;6.68;;;6.07;;
21192;SDS011;10754;51.106;7.164;2023-06-24T10:27:46;9.52;;;5.75;;
21192;SDS011;10754;51.106;7.164;2023-06-24T10:30:18;6.35;;;5.82;;
21192;SDS011;10754;51.106;7.164;2023-06-24T10:32:45;6.45;;;5.72;;
21192;SDS011;10754;51.106;7.164;2023-06-24T10:35:25;5.40;;;4.90;;
21192;SDS011;10754;51.106;7.164;2023-06-24T10:37:58;4.95;;;4.55;;
21192;SDS011;10754;51.106;7.164;2023-06-24T10:43:24;4.65;;;4.25;;
21192;SDS011;10754;51.106;7.164;2023-06-24T10:45:55;5.00;;;3.95;;
21192;SDS011;10754;51.106;7.164;2023-06-24T10:48:23;4.82;;;3.92;;
21192;SDS011;10754;51.106;7.164;2023-06-24T10:50:48;4.55;;;3.95;;
21192;SDS011;10754;51.106;7.164;2023-06-24T10:53:14;4.00;;;3.47;;
21192;SDS011;10754;51.106;7.164;2023-06-24T10:55:40;3.67;;;3.33;;
21192;SDS011;10754;51.106;7.164;2023-06-24T10:58:10;4.50;;;3.55;;
21192;SDS011;10754;51.106;7.164;2023-06-24T11:00:37;4.97;;;4.35;;
21192;SDS011;10754;51.106;7.164;2023-06-24T11:03:10;3.70;;;3.22;;
21192;SDS011;10754;51.106;7.164;2023-06-24T11:05:41;3.60;;;3.30;;
21192;SDS011;10754;51.106;7.164;2023-06-24T11:08:08;3.17;;;2.80;;
21192;SDS011;10754;51.106;7.164;2023-06-24T11:10:41;3.08;;;2.72;;
21192;SDS011;10754;51.106;7.164;2023-06-24T11:13:13;2.80;;;2.47;;
21192;SDS011;10754;51.106;7.164;2023-06-24T11:15:39;3.25;;;2.70;;
21192;SDS011;10754;51.106;7.164;2023-06-24T11:18:07;2.88;;;2.60;;
21192;SDS011;10754;51.106;7.164;2023-06-24T11:20:35;4.20;;;2.80;;
21192;SDS011;10754;51.106;7.164;2023-06-24T11:23:02;2.50;;;2.30;;
21192;SDS011;10754;51.106;7.164;2023-06-24T11:25:32;2.45;;;2.25;;
21192;SDS011;10754;51.106;7.164;2023-06-24T11:28:03;5.43;;;2.90;;
21192;SDS011;10754;51.106;7.164;2023-06-24T11:30:28;2.30;;;2.10;;
21192;SDS011;10754;51.106;7.164;2023-06-24T11:32:59;3.25;;;2.05;;
21192;SDS011;10754;51.106;7.164;2023-06-24T11:35:24;2.92;;;2.15;;
21192;SDS011;10754;51.106;7.164;2023-06-24T11:37:50;2.55;;;2.13;;
21192;SDS011;10754;51.106;7.164;2023-06-24T11:40:16;2.83;;;2.53;;
21192;SDS011;10754;51.106;7.164;2023-06-24T11:42:44;2.80;;;2.30;;
21192;SDS011;10754;51.106;7.164;2023-06-24T11:45:11;2.30;;;2.10;;
21192;SDS011;10754;51.106;7.164;2023-06-24T11:47:38;2.78;;;2.42;;
21192;SDS011;10754;51.106;7.164;2023-06-24T11:50:05;3.17;;;2.40;;
21192;SDS011;10754;51.106;7.164;2023-06-24T11:52:32;2.25;;;2.03;;
21192;SDS011;10754;51.106;7.164;2023-06-24T11:55:01;2.55;;;2.22;;
21192;SDS011;10754;51.106;7.164;2023-06-24T12:00:13;2.85;;;1.95;;
21192;SDS011;10754;51.106;7.164;2023-06-24T12:02:39;2.53;;;2.33;;
21192;SDS011;10754;51.106;7.164;2023-06-24T12:05:05;2.25;;;1.80;;
21192;SDS011;10754;51.106;7.164;2023-06-24T12:07:31;1.60;;;1.50;;
21192;SDS011;10754;51.106;7.164;2023-06-24T12:09:56;2.40;;;2.10;;
21192;SDS011;10754;51.106;7.164;2023-06-24T12:12:22;3.03;;;2.05;;
21192;SDS011;10754;51.106;7.164;2023-06-24T12:14:47;1.95;;;1.60;;
21192;SDS011;10754;51.106;7.164;2023-06-24T12:17:13;3.08;;;2.47;;
21192;SDS011;10754;51.106;7.164;2023-06-24T12:19:39;2.40;;;1.30;;
21192;SDS011;10754;51.106;7.164;2023-06-24T12:22:04;2.03;;;1.60;;
21192;SDS011;10754;51.106;7.164;2023-06-24T12:24:29;2.72;;;2.53;;
21192;SDS011;10754;51.106;7.164;2023-06-24T12:26:55;2.03;;;1.88;;
21192;SDS011;10754;51.106;7.164;2023-06-24T12:29:21;2.22;;;1.83;;
21192;SDS011;10754;51.106;7.164;2023-06-24T12:31:47;2.50;;;2.28;;
21192;SDS011;10754;51.106;7.164;2023-06-24T12:34:12;1.42;;;1.33;;
21192;SDS011;10754;51.106;7.164;2023-06-24T12:36:38;1.90;;;1.65;;
21192;SDS011;10754;51.106;7.164;2023-06-24T12:39:03;2.60;;;2.30;;
21192;SDS011;10754;51.106;7.164;2023-06-24T12:41:29;2.22;;;1.75;;
21192;SDS011;10754;51.106;7.164;2023-06-24T12:43:54;2.63;;;1.77;;
21192;SDS011;10754;51.106;7.164;2023-06-24T12:46:20;1.77;;;1.67;;
21192;SDS011;10754;51.106;7.164;2023-06-24T12:48:45;2.20;;;1.95;;
21192;SDS011;10754;51.106;7.164;2023-06-24T12:51:11;2.20;;;2.00;;
21192;SDS011;10754;51.106;7.164;2023-06-24T12:53:36;2.25;;;2.05;;
21192;SDS011;10754;51.106;7.164;2023-06-24T12:56:02;3.78;;;2.40;;
21192;SDS011;10754;51.106;7.164;2023-06-24T12:58:27;2.83;;;2.40;;
21192;SDS011;10754;51.106;7.164;2023-06-24T13:00:53;2.05;;;1.85;;
21192;SDS011;10754;51.106;7.164;2023-06-24T13:03:18;1.92;;;1.70;;
21192;SDS011;10754;51.106;7.164;2023-06-24T13:05:44;3.45;;;2.33;;
21192;SDS011;10754;51.106;7.164;2023-06-24T13:08:10;4.82;;;2.40;;
21192;SDS011;10754;51.106;7.164;2023-06-24T13:10:36;2.05;;;1.95;;
21192;SDS011;10754;51.106;7.164;2023-06-24T13:13:03;1.95;;;1.70;;
21192;SDS011;10754;51.106;7.164;2023-06-24T13:15:29;1.90;;;1.75;;
21192;SDS011;10754;51.106;7.164;2023-06-24T13:17:54;2.28;;;1.95;;
21192;SDS011;10754;51.106;7.164;2023-06-24T13:20:20;2.05;;;1.70;;
21192;SDS011;10754;51.106;7.164;2023-06-24T13:22:45;1.80;;;1.70;;
21192;SDS011;10754;51.106;7.164;2023-06-24T13:25:11;2.53;;;2.13;;
21192;SDS011;10754;51.106;7.164;2023-06-24T13:27:36;2.20;;;1.83;;
21192;SDS011;10754;51.106;7.164;2023-06-24T13:30:02;2.30;;;2.10;;
21192;SDS011;10754;51.106;7.164;2023-06-24T13:32:29;2.22;;;2.03;;
21192;SDS011;10754;51.106;7.164;2023-06-24T13:34:54;2.30;;;2.10;;
21192;SDS011;10754;51.106;7.164;2023-06-24T13:37:20;3.17;;;2.42;;
21192;SDS011;10754;51.106;7.164;2023-06-24T13:39:45;2.03;;;1.80;;
21192;SDS011;10754;51.106;7.164;2023-06-24T13:42:12;3.17;;;2.33;;
21192;SDS011;10754;51.106;7.164;2023-06-24T13:44:38;3.15;;;1.70;;
21192;SDS011;10754;51.106;7.164;2023-06-24T13:47:03;1.95;;;1.80;;
21192;SDS011;10754;51.106;7.164;2023-06-24T13:49:29;2.50;;;2.30;;
21192;SDS011;10754;51.106;7.164;2023-06-24T13:51:55;2.83;;;2.28;;
21192;SDS011;10754;51.106;7.164;2023-06-24T13:54:20;2.63;;;2.17;;
21192;SDS011;10754;51.106;7.164;2023-06-24T13:56:46;3.17;;;2.08;;
21192;SDS011;10754;51.106;7.164;2023-06-24T13:59:11;2.80;;;2.60;;
21192;SDS011;10754;51.106;7.164;2023-06-24T14:01:37;3.90;;;2.85;;
21192;SDS011;10754;51.106;7.164;2023-06-24T14:04:03;2.40;;;2.20;;
21192;SDS011;10754;51.106;7.164;2023-06-24T14:06:28;2.45;;;2.05;;
21192;SDS011;10754;51.106;7.164;2023-06-24T14:08:54;2.47;;;2.28;;
21192;SDS011;10754;51.106;7.164;2023-06-24T14:11:19;2.55;;;2.33;;
21192;SDS011;10754;51.106;7.164;2023-06-24T14:13:45;2.08;;;1.65;;
21192;SDS011;10754;51.106;7.164;2023-06-24T14:16:11;4.18;;;2.70;;
21192;SDS011;10754;51.106;7.164;2023-06-24T14:18:37;2.70;;;1.58;;
21192;SDS011;10754;51.106;7.164;2023-06-24T14:21:03;5.70;;;2.25;;
21192;SDS011;10754;51.106;7.164;2023-06-24T14:23:30;1.95;;;1.73;;
21192;SDS011;10754;51.106;7.164;2023-06-24T14:25:57;1.75;;;1.60;;
21192;SDS011;10754;51.106;7.164;2023-06-24T14:28:24;2.25;;;2.05;;
21192;SDS011;10754;51.106;7.164;2023-06-24T14:30:49;3.50;;;2.00;;
21192;SDS011;10754;51.106;7.164;2023-06-24T14:33:15;2.92;;;1.92;;
21192;SDS011;10754;51.106;7.164;2023-06-24T14:35:41;3.08;;;1.90;;
21192;SDS011;10754;51.106;7.164;2023-06-24T14:38:07;2.58;;;1.73;;
21192;SDS011;10754;51.106;7.164;2023-06-24T14:40:33;2.88;;;1.85;;
21192;SDS011;10754;51.106;7.164;2023-06-24T14:42:58;2.72;;;2.13;;
21192;SDS011;10754;51.106;7.164;2023-06-24T14:45:24;1.60;;;1.50;;
21192;SDS011;10754;51.106;7.164;2023-06-24T14:47:50;1.98;;;1.77;;
21192;SDS011;10754;51.106;7.164;2023-06-24T14:50:16;2.47;;;1.90;;
21192;SDS011;10754;51.106;7.164;2023-06-24T14:52:42;2.20;;;1.90;;
21192;SDS011;10754;51.106;7.164;2023-06-24T14:55:08;2.90;;;1.80;;
21192;SDS011;10754;51.106;7.164;2023-06-24T14:57:34;2.45;;;1.58;;
21192;SDS011;10754;51.106;7.164;2023-06-24T15:00:00;2.42;;;1.85;;